Morania No 6 — WBQ7544 — position and weather

sailwx.info

Track history (hours):
 
Tides and Currents Weather Stations Pressure Air Temp Water Temp Dewpoint Dewpoint Depression Visibility Wind Speed Wind Dir Waves Ship Positions

Morania No 6

Owner: PENN MARITIME INC, Seattle, WA. More information available from US FCC via Universal Licensing System and Coast Guard Vessel Documentation Center.

Last reported at 2015-Jun-25 11:22 UTC. Time now 2015-Jul-04 03:24 UTC.
Position N 29°50' W 089°60'.
Warning: this ship's position is 8 days out of date.

Length 45 m; draft 9.3 m.

MMSI: 366920970.

Date/timePositionNaut miles runAvg speedWind from/ knotsBaromVisibWave heightAir tempDewpointWater temp
2015-Jun-25 11:22N 29°50' W 089°60'6 7.2
2015-Jun-25 10:28N 29°55' W 089°55'8 8.5
2015-Jun-25 09:33N 29°56' W 090°04'45 2.3
2015-Jun-24 13:29N 30°06' W 090°55'1 0.7
2015-Jun-24 12:23N 30°07' W 090°55'  
2015-Jun-22 06:27N 30°03' W 090°29'19 3.7
2015-Jun-22 01:23N 29°57' W 090°08'4 4.0
2015-Jun-22 00:29N 29°55' W 090°05'4 3.8
2015-Jun-21 23:30N 29°57' W 090°01'6 3.1
2015-Jun-21 21:31N 29°53' W 089°57'  
Track history (hours):
 
Tides and Currents Weather Stations Pressure Air Temp Water Temp Dewpoint Dewpoint Depression Visibility Wind Speed Wind Dir Waves Ship Positions

Morania No 6

Owner: PENN MARITIME INC, Seattle, WA. More information available from US FCC via Universal Licensing System and Coast Guard Vessel Documentation Center.

Last reported at 2015-Jun-25 11:22 UTC. Time now 2015-Jul-04 03:24 UTC.
Position N 29°50' W 089°60'.
Warning: this ship's position is 8 days out of date.

Length 45 m; draft 9.3 m.

MMSI: 366920970.

Date/timePositionNaut miles runAvg speedWind from/ knotsBaromVisibWave heightAir tempDewpointWater temp
2015-Jun-25 11:22N 29°50' W 089°60'6 7.2
2015-Jun-25 10:28N 29°55' W 089°55'8 8.5
2015-Jun-25 09:33N 29°56' W 090°04'45 2.3
2015-Jun-24 13:29N 30°06' W 090°55'1 0.7
2015-Jun-24 12:23N 30°07' W 090°55'  
2015-Jun-22 06:27N 30°03' W 090°29'19 3.7
2015-Jun-22 01:23N 29°57' W 090°08'4 4.0
2015-Jun-22 00:29N 29°55' W 090°05'4 3.8
2015-Jun-21 23:30N 29°57' W 090°01'6 3.1
2015-Jun-21 21:31N 29°53' W 089°57'  

Dump ship's entire track history